Time;durP1;ratioP1;P1;durP2;ratioP2;P2;SDS_P1;SDS_P2;PMS_P1;PMS_P2;Temp;Humidity;BMP_temperature;BMP_pressure;BME280_temperature;BME280_humidity;BME280_pressure;Samples;Min_cycle;Max_cycle;Signal;HPM_P1;HPM_P2
2022/06/01 00:01:11;;;;;;;9.20;6.30;;;;;;;13.30;71.38;98129.74;106117;1280;137420;-85
2022/06/01 00:03:42;;;;;;;7.70;6.20;;;;;;;13.32;71.29;98123.59;106061;1280;24384;-85
2022/06/01 00:06:10;;;;;;;6.50;5.20;;;;;;;13.33;71.25;98115.33;105925;1281;25354;-85
2022/06/01 00:08:40;;;;;;;9.00;5.80;;;;;;;13.37;71.13;98120.35;106017;1280;137602;-84
2022/06/01 00:11:09;;;;;;;6.90;6.00;;;;;;;13.40;70.98;98126.07;105967;1280;25331;-84
2022/06/01 00:13:36;;;;;;;11.20;6.70;;;;;;;13.40;70.97;98130.17;106040;1280;138075;-84
2022/06/01 00:16:07;;;;;;;10.10;6.30;;;;;;;13.41;70.94;98142.42;106018;1280;22564;-84
2022/06/01 00:18:35;;;;;;;10.20;6.00;;;;;;;13.43;70.91;98137.44;106227;1280;24302;-84
2022/06/01 00:21:16;;;;;;;10.50;6.40;;;;;;;13.44;70.87;98126.39;105945;1281;30696;-84
2022/06/01 00:23:45;;;;;;;12.50;6.10;;;;;;;13.44;70.69;98121.59;105886;1281;22618;-83
2022/06/01 00:26:11;;;;;;;6.80;5.50;;;;;;;13.43;70.71;98111.84;106262;1282;138928;-84
2022/06/01 00:28:52;;;;;;;6.50;5.50;;;;;;;13.45;70.73;98107.63;106384;1281;23512;-84
2022/06/01 00:31:18;;;;;;;9.20;5.80;;;;;;;13.46;70.73;98115.89;106077;1280;137362;-84
2022/06/01 00:33:44;;;;;;;8.00;6.00;;;;;;;13.48;70.74;98119.34;106366;1280;25362;-84
2022/06/01 00:36:13;;;;;;;8.60;6.10;;;;;;;13.51;70.51;98117.05;106201;1280;24339;-84
2022/06/01 00:38:42;;;;;;;8.50;5.80;;;;;;;13.53;70.54;98117.05;106399;1280;138042;-84
2022/06/01 00:41:08;;;;;;;7.70;6.10;;;;;;;13.57;70.51;98118.48;106633;1280;25307;-84
2022/06/01 00:43:44;;;;;;;9.70;5.80;;;;;;;13.58;70.40;98119.02;105853;1284;137576;-84
2022/06/01 00:46:12;;;;;;;7.30;6.10;;;;;;;13.59;70.18;98124.92;106054;1282;24283;-83
2022/06/01 00:48:43;;;;;;;11.00;6.00;;;;;;;13.62;70.24;98123.95;106187;1282;22569;-84
2022/06/01 00:51:17;;;;;;;7.40;5.70;;;;;;;13.63;70.19;98124.16;106089;1280;25385;-84
2022/06/01 00:53:45;;;;;;;9.50;6.50;;;;;;;13.64;70.24;98128.33;106316;1280;24419;-84
2022/06/01 00:56:33;;;;;;;9.00;6.20;;;;;;;13.64;70.20;98119.52;106039;1282;137219;-84
2022/06/01 00:59:03;;;;;;;7.70;6.00;;;;;;;13.65;70.24;98118.30;105938;1280;24231;-85
2022/06/01 01:01:33;;;;;;;7.20;6.10;;;;;;;13.65;70.11;98113.71;106123;1280;137892;-84
2022/06/01 01:04:08;;;;;;;9.20;5.50;;;;;;;13.67;70.04;98111.29;106172;1280;24373;-85
2022/06/01 01:06:46;;;;;;;9.40;6.30;;;;;;;13.71;70.01;98108.08;106350;1277;25366;-85
2022/06/01 01:09:13;;;;;;;8.30;6.30;;;;;;;13.75;69.90;98112.62;106513;1277;22580;-83
2022/06/01 01:11:58;;;;;;;8.00;6.40;;;;;;;13.79;69.86;98114.69;106443;1277;25428;-84
2022/06/01 01:14:30;;;;;;;7.90;6.40;;;;;;;13.83;69.70;98116.89;106288;1278;137022;-84
2022/06/01 01:16:59;;;;;;;9.70;6.70;;;;;;;13.85;69.56;98117.27;106548;1277;23323;-83
2022/06/01 01:19:33;;;;;;;9.20;6.40;;;;;;;13.85;69.52;98114.52;106437;1278;137921;-84
2022/06/01 01:22:02;;;;;;;11.00;6.70;;;;;;;13.83;69.54;98116.95;106210;1277;22534;-84
2022/06/01 01:24:44;;;;;;;8.30;5.80;;;;;;;13.80;69.56;98115.90;106407;1277;23806;-84
2022/06/01 01:27:13;;;;;;;6.10;4.90;;;;;;;13.81;69.53;98115.62;106391;1277;22569;-84
2022/06/01 01:29:44;;;;;;;8.40;6.60;;;;;;;13.81;69.44;98117.04;106193;1277;24208;-84
2022/06/01 01:32:13;;;;;;;6.70;6.00;;;;;;;13.82;69.54;98114.81;106530;1277;137165;-84
2022/06/01 01:34:41;;;;;;;7.80;5.70;;;;;;;13.83;69.37;98114.69;106994;1277;25367;-83
2022/06/01 01:37:16;;;;;;;10.00;5.80;;;;;;;13.84;69.24;98114.09;106504;1277;137458;-84
2022/06/01 01:39:43;;;;;;;9.20;5.90;;;;;;;13.85;68.85;98114.02;106595;1278;25478;-84
2022/06/01 01:42:09;;;;;;;7.10;5.50;;;;;;;13.84;68.66;98116.48;106901;1279;22667;-84
2022/06/01 01:44:58;;;;;;;9.10;6.00;;;;;;;13.84;68.80;98112.59;106406;1278;137150;-84
2022/06/01 01:47:28;;;;;;;9.70;5.90;;;;;;;13.84;68.70;98104.17;106420;1279;22549;-84
2022/06/01 01:50:10;;;;;;;6.80;5.60;;;;;;;13.83;68.69;98100.19;106501;1277;137627;-84
2022/06/01 01:52:37;;;;;;;6.70;4.90;;;;;;;13.83;68.58;98093.51;106743;1277;25379;-84
2022/06/01 01:55:16;;;;;;;6.70;4.90;;;;;;;13.83;68.58;98090.61;106177;1277;137755;-84
2022/06/01 01:57:50;;;;;;;11.80;5.50;;;;;;;13.82;68.35;98093.02;106393;1277;22556;-84
2022/06/01 02:00:24;;;;;;;6.10;4.60;;;;;;;13.83;68.32;98095.42;106396;1277;23442;-84
2022/06/01 02:03:09;;;;;;;8.00;4.90;;;;;;;13.86;67.69;98097.17;106118;1277;137499;-84
2022/06/01 02:06:04;;;;;;;7.20;4.80;;;;;;;13.86;67.46;98099.52;106005;1277;22564;-86
2022/06/01 02:08:54;;;;;;;5.30;4.70;;;;;;;13.84;67.47;98099.09;106207;1278;137147;-83
2022/06/01 02:14:27;;;;;;;6.00;4.70;;;;;;;13.87;66.65;98095.46;106186;1277;124312;-84
2022/06/01 02:17:13;;;;;;;5.80;4.70;;;;;;;13.90;66.48;98095.70;105843;1277;22560;-84
2022/06/01 02:19:55;;;;;;;7.70;4.30;;;;;;;13.93;66.19;98095.24;106114;1277;137149;-84
2022/06/01 02:22:21;;;;;;;8.80;5.10;;;;;;;13.95;66.58;98092.73;105790;1279;24304;-84
2022/06/01 02:24:48;;;;;;;5.50;5.00;;;;;;;13.94;66.99;98091.27;105581;1279;137832;-84
2022/06/01 02:27:19;;;;;;;6.10;4.10;;;;;;;13.92;67.09;98088.69;106299;1277;24261;-85
2022/06/01 02:29:55;;;;;;;6.60;4.80;;;;;;;13.92;66.51;98086.27;106147;1277;22628;-84
2022/06/01 02:32:28;;;;;;;6.70;4.40;;;;;;;13.95;66.33;98083.80;106201;1277;137732;-84
2022/06/01 02:35:00;;;;;;;6.70;5.50;;;;;;;13.97;66.36;98087.80;106337;1277;22550;-83
2022/06/01 02:37:29;;;;;;;9.40;5.40;;;;;;;13.95;66.88;98098.32;106105;1277;137417;-84
2022/06/01 02:39:57;;;;;;;5.80;5.20;;;;;;;13.87;67.28;98105.06;106239;1277;22703;-84
2022/06/01 02:42:28;;;;;;;6.60;5.80;;;;;;;13.78;67.97;98109.98;106357;1277;25598;-84
2022/06/01 02:45:04;;;;;;;6.70;5.80;;;;;;;13.69;68.21;98112.08;106269;1278;137431;-84
2022/06/01 02:47:33;;;;;;;7.10;5.40;;;;;;;13.64;68.44;98119.23;106406;1278;22969;-84
2022/06/01 02:50:10;;;;;;;7.10;4.90;;;;;;;13.64;68.90;98123.50;105991;1278;137861;-84
2022/06/01 02:52:37;;;;;;;6.80;5.60;;;;;;;13.61;68.92;98130.63;106287;1277;23553;-84
2022/06/01 02:55:05;;;;;;;8.60;5.80;;;;;;;13.59;69.22;98130.95;106252;1277;138224;-84
2022/06/01 02:57:33;;;;;;;10.80;6.70;;;;;;;13.60;69.48;98140.52;106501;1277;25369;-84
2022/06/01 03:00:02;;;;;;;8.80;6.10;;;;;;;13.57;69.61;98139.42;106697;1277;25446;-83
2022/06/01 03:02:29;;;;;;;8.70;6.40;;;;;;;13.52;69.65;98138.37;106391;1281;137191;-84
2022/06/01 03:04:55;;;;;;;6.40;5.20;;;;;;;13.49;69.93;98144.45;106515;1277;22594;-83
2022/06/01 03:07:24;;;;;;;8.80;5.60;;;;;;;13.39;70.09;98151.55;106231;1277;137425;-83
2022/06/01 03:10:06;;;;;;;8.70;5.10;;;;;;;13.33;70.39;98148.58;106216;1277;24306;-86
2022/06/01 03:12:33;;;;;;;6.60;5.10;;;;;;;13.33;70.65;98150.49;106105;1281;22654;-84
2022/06/01 03:15:00;;;;;;;8.90;5.10;;;;;;;13.30;70.71;98157.31;105853;1279;137088;-84
2022/06/01 03:17:26;;;;;;;8.50;5.90;;;;;;;13.20;71.02;98164.89;106056;1277;22590;-83
2022/06/01 03:19:52;;;;;;;8.50;6.50;;;;;;;13.14;71.42;98170.38;105733;1279;137984;-84
2022/06/01 03:22:18;;;;;;;7.70;6.30;;;;;;;13.11;71.60;98169.94;106288;1278;22568;-84
2022/06/01 03:24:46;;;;;;;8.00;5.70;;;;;;;13.13;71.86;98175.95;106378;1277;137647;-83
2022/06/01 03:27:12;;;;;;;8.90;5.80;;;;;;;13.16;71.86;98177.77;106445;1277;22709;-83
2022/06/01 03:29:40;;;;;;;9.70;6.40;;;;;;;13.18;71.84;98177.95;106237;1277;22701;-84
2022/06/01 03:32:07;;;;;;;8.20;6.90;;;;;;;13.19;71.81;98177.29;106073;1281;137169;-83
2022/06/01 03:34:34;;;;;;;9.90;5.90;;;;;;;13.21;71.99;98172.70;106118;1277;22566;-83
2022/06/01 03:37:02;;;;;;;9.80;6.40;;;;;;;13.20;72.10;98179.41;105899;1278;137192;-84
2022/06/01 03:39:29;;;;;;;8.60;6.10;;;;;;;13.16;72.30;98189.96;105805;1281;22690;-84
2022/06/01 03:41:59;;;;;;;7.00;4.80;;;;;;;13.14;72.58;98192.86;106360;1278;22580;-84
2022/06/01 03:47:11;;;;;;;9.00;6.30;;;;;;;13.21;72.79;98203.44;106294;1278;23165;-85
2022/06/01 03:49:38;;;;;;;7.40;5.80;;;;;;;13.26;72.76;98207.83;106176;1278;137787;-85
2022/06/01 03:52:09;;;;;;;8.50;5.40;;;;;;;13.30;73.08;98212.78;106381;1277;22671;-83
2022/06/01 03:54:37;;;;;;;6.80;5.20;;;;;;;13.33;73.09;98216.63;106018;1281;23203;-85
2022/06/01 03:57:18;;;;;;;7.80;5.00;;;;;;;13.38;73.15;98217.19;106190;1278;22547;-83
2022/06/01 03:59:48;;;;;;;10.80;5.40;;;;;;;13.45;73.11;98210.05;105996;1281;22559;-85
2022/06/01 04:02:14;;;;;;;9.40;5.40;;;;;;;13.52;73.05;98212.03;106425;1277;138582;-85
2022/06/01 04:04:42;;;;;;;11.80;5.60;;;;;;;13.56;73.12;98208.20;106060;1280;22558;-85
2022/06/01 04:07:09;;;;;;;8.20;5.40;;;;;;;13.58;73.15;98212.80;106082;1278;137631;-85
2022/06/01 04:09:35;;;;;;;11.70;5.70;;;;;;;13.58;73.33;98213.19;106069;1281;24300;-84
2022/06/01 04:12:16;;;;;;;10.70;5.10;;;;;;;13.59;73.60;98212.64;106108;1277;22609;-84
2022/06/01 04:14:43;;;;;;;8.00;4.60;;;;;;;13.62;73.80;98210.63;106282;1277;137889;-83
2022/06/01 04:17:18;;;;;;;8.90;5.70;;;;;;;13.67;73.97;98204.02;106069;1278;25395;-83
2022/06/01 04:19:44;;;;;;;9.00;5.50;;;;;;;13.72;74.14;98206.59;105932;1277;137083;-83
2022/06/01 04:22:15;;;;;;;8.50;5.50;;;;;;;13.77;74.05;98201.95;105879;1278;22569;-84
2022/06/01 04:24:45;;;;;;;6.70;5.30;;;;;;;13.82;74.31;98210.11;105903;1281;22551;-83
2022/06/01 04:27:12;;;;;;;7.00;5.20;;;;;;;13.87;74.22;98216.30;106524;1277;22630;-83
2022/06/01 04:29:39;;;;;;;10.40;5.70;;;;;;;13.95;74.21;98206.89;106040;1281;22553;-84
2022/06/01 04:32:10;;;;;;;11.20;5.80;;;;;;;14.04;74.08;98206.29;106111;1281;137476;-84
2022/06/01 04:34:37;;;;;;;9.10;5.80;;;;;;;14.13;74.01;98208.76;106052;1277;25534;-85
2022/06/01 04:37:05;;;;;;;7.60;5.70;;;;;;;14.19;74.00;98192.86;106219;1278;139595;-83
2022/06/01 04:39:46;;;;;;;9.70;5.30;;;;;;;14.28;73.53;98186.55;105999;1278;25507;-84
2022/06/01 04:42:12;;;;;;;7.80;5.10;;;;;;;14.34;73.40;98188.36;106053;1277;22554;-83
2022/06/01 04:44:40;;;;;;;11.50;5.50;;;;;;;14.37;73.44;98194.82;106102;1277;137141;-84
2022/06/01 04:47:08;;;;;;;7.40;5.00;;;;;;;14.39;73.51;98199.02;106701;1277;22558;-83
2022/06/01 04:49:34;;;;;;;7.90;5.30;;;;;;;14.43;73.39;98204.83;106158;1277;137214;-83
2022/06/01 04:52:15;;;;;;;11.40;5.40;;;;;;;14.51;73.45;98205.36;106403;1277;22681;-84
2022/06/01 04:54:42;;;;;;;8.70;5.30;;;;;;;14.60;73.45;98210.63;106412;1278;25350;-84
2022/06/01 04:57:09;;;;;;;7.80;5.20;;;;;;;14.70;73.27;98214.73;106144;1279;137819;-84
2022/06/01 04:59:35;;;;;;;9.70;5.60;;;;;;;14.81;72.92;98220.45;106250;1277;22573;-84
2022/06/01 05:02:16;;;;;;;10.60;6.70;;;;;;;14.88;72.98;98222.35;106199;1278;137289;-83
2022/06/01 05:04:43;;;;;;;12.00;7.40;;;;;;;14.91;72.75;98227.71;106346;1277;24299;-83
2022/06/01 05:07:09;;;;;;;12.60;7.80;;;;;;;14.92;72.44;98228.91;106184;1278;138628;-84
2022/06/01 05:09:35;;;;;;;11.50;6.90;;;;;;;14.92;72.46;98218.11;106504;1277;23037;-84
2022/06/01 05:12:02;;;;;;;14.00;7.10;;;;;;;14.98;72.57;98209.88;106179;1277;24274;-84
2022/06/01 05:14:28;;;;;;;10.20;7.30;;;;;;;15.07;72.30;98205.17;106355;1277;137943;-84
2022/06/01 05:17:09;;;;;;;15.60;7.40;;;;;;;15.18;72.31;98211.88;106213;1278;30279;-83
2022/06/01 05:19:36;;;;;;;19.60;8.10;;;;;;;15.30;72.07;98221.10;106072;1278;137340;-84
2022/06/01 05:22:03;;;;;;;14.40;7.90;;;;;;;15.42;71.47;98216.80;105950;1278;22547;-83
2022/06/01 05:24:43;;;;;;;21.30;7.80;;;;;;;15.54;71.13;98211.69;105884;1278;24310;-84
2022/06/01 05:27:24;;;;;;;13.40;8.10;;;;;;;15.62;70.55;98209.06;106081;1277;31379;-84
2022/06/01 05:29:51;;;;;;;11.50;7.50;;;;;;;15.70;70.43;98214.27;106241;1277;22572;-83
2022/06/01 05:32:18;;;;;;;11.40;6.90;;;;;;;15.73;70.08;98213.25;106359;1277;137343;-86
2022/06/01 05:34:59;;;;;;;16.50;7.10;;;;;;;15.80;69.74;98218.98;106112;1278;25267;-84
2022/06/01 05:37:25;;;;;;;12.10;7.00;;;;;;;15.82;69.54;98211.70;106358;1278;137541;-84
2022/06/01 05:39:52;;;;;;;13.30;6.70;;;;;;;15.87;69.47;98205.95;106255;1277;23310;-84
2022/06/01 05:42:18;;;;;;;16.90;6.80;;;;;;;15.93;69.42;98210.77;106219;1277;22555;-84
2022/06/01 05:44:45;;;;;;;15.50;7.20;;;;;;;15.98;69.56;98215.93;105962;1277;137461;-85
2022/06/01 05:47:12;;;;;;;16.50;7.90;;;;;;;15.99;69.32;98208.34;106127;1278;22641;-84
2022/06/01 05:49:39;;;;;;;16.40;7.80;;;;;;;15.99;69.34;98199.71;106187;1277;138008;-84
2022/06/01 05:52:05;;;;;;;16.20;8.10;;;;;;;15.99;69.31;98195.27;106338;1277;23802;-84
2022/06/01 05:54:32;;;;;;;17.00;7.80;;;;;;;15.98;69.13;98193.78;106417;1277;23793;-84
2022/06/01 05:56:58;;;;;;;13.90;7.40;;;;;;;16.00;69.12;98194.92;106011;1277;137281;-84
2022/06/01 05:59:24;;;;;;;11.80;6.90;;;;;;;16.03;69.20;98199.73;106556;1278;25273;-84
2022/06/01 06:01:51;;;;;;;13.00;6.70;;;;;;;16.07;68.98;98201.51;106045;1280;138177;-84
2022/06/01 06:04:17;;;;;;;8.80;6.10;;;;;;;16.13;68.92;98206.36;106417;1278;22610;-84
2022/06/01 06:06:44;;;;;;;11.90;6.70;;;;;;;16.22;68.91;98214.23;106460;1278;23957;-83
2022/06/01 06:09:10;;;;;;;8.10;5.80;;;;;;;16.31;68.80;98213.90;106673;1277;137172;-86
2022/06/01 06:11:40;;;;;;;8.50;6.00;;;;;;;16.40;68.81;98211.95;106541;1277;25545;-86
2022/06/01 06:14:07;;;;;;;;;;;;;;;16.52;68.51;98203.14;106208;1277;138145;-85
2022/06/01 06:16:37;;;;;;;9.00;5.50;;;;;;;16.64;68.35;98200.66;106260;1278;25379;-85
2022/06/01 06:19:04;;;;;;;7.60;4.90;;;;;;;16.73;67.74;98198.80;106060;1277;137270;-86
2022/06/01 06:21:32;;;;;;;6.10;5.20;;;;;;;16.79;67.45;98199.63;106518;1277;23324;-85
2022/06/01 06:24:00;;;;;;;7.10;5.30;;;;;;;16.86;67.17;98208.64;106278;1277;22567;-85
2022/06/01 06:26:27;;;;;;;9.60;5.10;;;;;;;16.95;67.40;98216.75;106355;1278;137172;-86
2022/06/01 06:28:54;;;;;;;6.80;5.00;;;;;;;17.04;67.29;98220.71;106382;1277;23955;-85
2022/06/01 06:31:37;;;;;;;11.20;5.00;;;;;;;17.13;66.92;98225.00;106664;1277;138315;-85
2022/06/01 06:34:04;;;;;;;7.60;4.20;;;;;;;17.22;66.63;98232.65;106069;1277;22548;-84
2022/06/01 06:36:31;;;;;;;7.90;5.40;;;;;;;17.30;66.49;98234.81;106437;1278;27003;-85
2022/06/01 06:38:58;;;;;;;6.20;5.10;;;;;;;17.34;66.00;98233.61;106406;1277;137237;-85
2022/06/01 06:41:25;;;;;;;6.30;4.90;;;;;;;17.36;65.63;98227.84;106299;1277;22581;-85
2022/06/01 06:43:52;;;;;;;8.60;5.60;;;;;;;17.37;65.52;98230.26;106243;1277;137182;-84
2022/06/01 06:46:21;;;;;;;8.70;5.70;;;;;;;17.38;65.37;98232.28;106170;1277;24485;-84
2022/06/01 06:48:48;;;;;;;11.40;5.90;;;;;;;17.39;65.06;98234.86;106031;1277;137314;-84
2022/06/01 06:51:17;;;;;;;9.30;6.00;;;;;;;17.39;65.22;98230.67;106239;1280;25285;-85
2022/06/01 06:53:44;;;;;;;9.50;6.20;;;;;;;17.40;65.40;98233.64;105887;1280;810692;-86
2022/06/01 06:56:12;;;;;;;9.60;6.30;;;;;;;17.39;65.13;98235.31;106196;1278;137644;-85
2022/06/01 06:58:40;;;;;;;12.70;6.40;;;;;;;17.41;65.22;98238.85;107062;1277;22633;-83
2022/06/01 07:01:08;;;;;;;7.30;6.00;;;;;;;17.48;65.23;98240.75;106566;1277;137694;-84
2022/06/01 07:03:35;;;;;;;12.70;7.40;;;;;;;17.53;65.04;98241.63;106453;1277;23234;-84
2022/06/01 07:06:13;;;;;;;8.60;6.80;;;;;;;17.58;65.23;98244.18;106617;1277;25326;-85
2022/06/01 07:08:43;;;;;;;11.10;7.00;;;;;;;17.67;65.22;98245.77;106479;1277;138058;-84
2022/06/01 07:11:11;;;;;;;12.10;7.00;;;;;;;17.74;64.96;98249.80;106360;1278;23017;-84
2022/06/01 07:13:52;;;;;;;9.00;6.10;;;;;;;17.81;64.57;98250.86;106129;1278;137648;-85
2022/06/01 07:16:20;;;;;;;8.80;6.20;;;;;;;17.83;63.98;98252.92;106210;1277;22778;-83
2022/06/01 07:18:48;;;;;;;10.90;7.00;;;;;;;17.86;64.22;98256.92;106020;1278;24389;-84
2022/06/01 07:21:30;;;;;;;12.80;8.00;;;;;;;17.86;64.45;98258.70;106024;1278;22560;-83
2022/06/01 07:23:57;;;;;;;13.20;7.70;;;;;;;17.84;64.37;98256.92;106239;1277;22877;-83
2022/06/01 07:26:26;;;;;;;9.80;8.00;;;;;;;17.81;64.29;98256.38;105989;1280;137439;-84
2022/06/01 07:28:53;;;;;;;9.80;6.60;;;;;;;17.76;64.47;98256.88;106015;1278;22684;-85
2022/06/01 07:31:21;;;;;;;10.00;6.60;;;;;;;17.71;64.77;98258.05;105980;1278;138592;-85
2022/06/01 07:33:48;;;;;;;9.10;5.40;;;;;;;17.64;64.92;98258.64;106514;1277;22559;-83
2022/06/01 07:36:16;;;;;;;7.20;5.10;;;;;;;17.65;65.43;98252.08;106583;1277;22566;-84
2022/06/01 07:44:33;;;;;;;5.40;3.70;;;;;;;18.03;65.23;98250.63;106496;1277;137313;-84
2022/06/01 07:47:00;;;;;;;10.20;3.70;;;;;;;18.19;65.01;98245.26;106472;1277;22687;-84
2022/06/01 07:49:27;;;;;;;3.00;2.60;;;;;;;18.31;65.03;98248.63;106050;1278;137536;-84
2022/06/01 07:51:54;;;;;;;7.60;2.80;;;;;;;18.40;64.53;98253.40;106578;1277;22611;-86
2022/06/01 07:54:20;;;;;;;6.40;3.00;;;;;;;18.43;64.37;98250.64;106330;1277;22880;-83
2022/06/01 07:56:47;;;;;;;3.80;3.00;;;;;;;18.41;64.56;98256.25;106184;1278;22544;-84
2022/06/01 07:59:14;;;;;;;4.60;3.20;;;;;;;18.34;65.00;98264.73;106250;1277;22695;-85
2022/06/01 08:01:41;;;;;;;5.10;3.20;;;;;;;18.26;65.56;98267.91;106039;1277;137779;-84
2022/06/01 08:04:09;;;;;;;3.70;3.10;;;;;;;18.17;65.76;98269.76;106093;1278;24283;-84
2022/06/01 08:06:51;;;;;;;5.10;3.00;;;;;;;18.08;65.80;98274.81;106143;1277;22544;-81
2022/06/01 08:09:25;;;;;;;4.90;3.10;;;;;;;17.96;66.72;98281.04;106305;1277;22840;-80
2022/06/01 08:15:08;;;;;;;4.80;3.40;;;;;;;17.81;68.15;98281.33;106258;1277;137167;-78
2022/06/01 08:17:35;;;;;;;5.40;3.40;;;;;;;17.75;68.49;98284.55;106188;1277;22536;-79
2022/06/01 08:20:02;;;;;;;5.20;3.40;;;;;;;17.68;68.85;98283.33;105959;1277;138711;-80
2022/06/01 08:22:29;;;;;;;5.80;3.30;;;;;;;17.63;69.63;98283.65;106278;1277;23341;-79
2022/06/01 08:24:55;;;;;;;5.90;3.90;;;;;;;17.59;69.85;98285.31;106172;1277;137319;-79
2022/06/01 08:27:22;;;;;;;3.10;2.80;;;;;;;17.56;70.13;98287.55;105861;1278;22717;-79
2022/06/01 08:29:48;;;;;;;4.70;3.20;;;;;;;17.53;70.17;98285.73;105939;1279;22820;-79
2022/06/01 08:32:15;;;;;;;3.60;3.30;;;;;;;17.48;70.30;98291.23;106095;1277;137335;-80
2022/06/01 08:34:56;;;;;;;4.70;2.90;;;;;;;17.44;70.76;98297.95;106294;1277;22611;-80
2022/06/01 08:37:22;;;;;;;4.10;3.00;;;;;;;17.43;70.72;98300.10;106161;1277;138019;-80
2022/06/01 08:39:49;;;;;;;4.50;2.90;;;;;;;17.44;70.89;98303.13;106330;1277;24253;-81
2022/06/01 08:42:20;;;;;;;4.50;3.00;;;;;;;17.50;70.94;98303.11;106411;1277;22738;-82
2022/06/01 08:44:50;;;;;;;5.00;3.50;;;;;;;17.57;71.01;98298.39;106389;1277;137092;-82
2022/06/01 08:47:17;;;;;;;4.70;3.20;;;;;;;17.72;71.10;98298.92;106341;1277;23970;-82
2022/06/01 08:49:43;;;;;;;3.70;2.80;;;;;;;17.92;71.08;98298.11;106591;1277;137997;-82
2022/06/01 08:52:10;;;;;;;5.30;2.90;;;;;;;18.23;70.98;98296.30;106205;1277;22576;-83
2022/06/01 08:54:36;;;;;;;4.20;3.30;;;;;;;18.45;70.11;98292.79;106404;1277;22621;-83
2022/06/01 08:57:16;;;;;;;3.30;3.00;;;;;;;18.52;68.60;98288.83;106170;1277;137845;-82
2022/06/01 09:00:15;;;;;;;4.10;3.00;;;;;;;18.62;68.01;98282.60;106281;1277;22579;-83
2022/06/01 09:03:07;;;;;;;3.90;3.20;;;;;;;18.81;68.10;98283.53;106306;1277;137053;-83
2022/06/01 09:05:52;;;;;;;4.90;3.40;;;;;;;18.99;67.72;98281.35;106345;1277;22724;-83
2022/06/01 09:08:48;;;;;;;3.70;3.00;;;;;;;19.07;66.65;98278.77;106562;1277;137260;-84
2022/06/01 09:11:23;;;;;;;3.90;3.10;;;;;;;19.19;66.46;98281.80;106272;1277;24231;-84
2022/06/01 09:14:07;;;;;;;4.70;2.90;;;;;;;19.30;65.75;98281.36;106250;1277;137107;-85
2022/06/01 09:16:52;;;;;;;4.60;2.80;;;;;;;19.49;65.06;98283.02;106720;1277;23236;-85
2022/06/01 09:19:27;;;;;;;4.60;3.40;;;;;;;19.66;64.62;98276.35;106388;1277;137283;-85
2022/06/01 09:25:00;;;;;;;3.90;2.90;;;;;;;20.20;64.09;98274.30;105893;1278;138345;-84
2022/06/01 09:27:44;;;;;;;5.00;3.20;;;;;;;20.49;63.71;98268.34;105980;1277;24391;-86
2022/06/01 09:30:26;;;;;;;4.20;2.60;;;;;;;20.77;63.09;98271.08;106253;1277;23203;-85
2022/06/01 09:33:04;;;;;;;4.40;3.00;;;;;;;21.01;61.59;98266.06;105900;1277;137300;-83
2022/06/01 09:35:58;;;;;;;2.60;2.10;;;;;;;21.27;59.34;98268.17;106164;1277;22673;-85
2022/06/01 09:38:51;;;;;;;6.10;2.40;;;;;;;21.36;57.83;98266.20;106171;1277;137429;-84
2022/06/01 09:41:40;;;;;;;2.10;1.80;;;;;;;21.49;57.10;98270.69;106107;1278;25294;-85
2022/06/01 09:44:17;;;;;;;3.20;1.90;;;;;;;21.55;55.13;98269.64;106022;1278;137286;-84
2022/06/01 09:46:47;;;;;;;4.30;1.40;;;;;;;21.62;55.56;98270.79;105927;1277;26561;-86
2022/06/01 09:49:36;;;;;;;2.30;1.50;;;;;;;21.78;54.70;98271.61;106022;1278;138011;-84
2022/06/01 09:52:11;;;;;;;2.30;1.20;;;;;;;21.99;54.43;98268.95;106157;1277;22555;-83
2022/06/01 09:54:43;;;;;;;2.00;1.30;;;;;;;22.21;53.30;98268.38;106175;1277;22573;-84
2022/06/01 09:57:26;;;;;;;2.30;1.60;;;;;;;22.34;52.30;98267.88;106186;1277;137341;-85
2022/06/01 10:08:29;;;;;;;3.00;2.10;;;;;;;22.75;51.78;98271.02;105881;1277;137691;-87
2022/06/01 10:11:04;;;;;;;3.10;2.20;;;;;;;22.90;51.65;98271.34;106341;1277;25368;-86
2022/06/01 10:13:52;;;;;;;4.10;1.90;;;;;;;23.04;51.29;98271.50;106047;1277;137838;-86
2022/06/01 10:16:46;;;;;;;3.00;2.20;;;;;;;23.22;50.79;98266.77;106301;1277;22678;-87
2022/06/01 10:19:39;;;;;;;3.30;1.80;;;;;;;23.36;50.25;98272.08;106147;1277;138860;-85
2022/06/01 10:22:18;;;;;;;4.90;2.00;;;;;;;23.45;49.89;98267.85;106231;1277;24245;-86
2022/06/01 10:24:56;;;;;;;3.10;2.30;;;;;;;23.62;50.60;98264.89;106351;1277;25271;-87
2022/06/01 10:27:59;;;;;;;3.40;2.10;;;;;;;23.85;49.48;98263.74;106103;1278;24234;-86
2022/06/01 10:30:46;;;;;;;3.40;1.80;;;;;;;23.98;48.67;98269.50;106425;1277;24483;-84
2022/06/01 10:33:35;;;;;;;2.40;2.10;;;;;;;24.10;48.45;98267.55;106413;1277;30240;-88
2022/06/01 10:36:10;;;;;;;2.90;1.60;;;;;;;24.24;48.49;98266.88;106216;1280;25280;-87
2022/06/01 10:38:50;;;;;;;1.90;1.70;;;;;;;24.36;47.97;98265.20;106012;1277;139068;-86
2022/06/01 10:41:44;;;;;;;7.00;1.90;;;;;;;24.18;46.62;98269.70;106378;1277;22710;-86
2022/06/01 10:44:33;;;;;;;5.60;1.70;;;;;;;24.10;45.40;98263.59;105952;1278;138493;-85
2022/06/01 10:47:33;;;;;;;4.60;1.80;;;;;;;24.17;45.64;98268.61;105912;1277;22614;-82
2022/06/01 10:50:28;;;;;;;4.60;1.80;;;;;;;24.22;45.05;98267.71;106344;1277;138007;-84
2022/06/01 10:53:33;;;;;;;4.10;1.90;;;;;;;24.25;44.19;98270.20;106135;1277;22566;-83
2022/06/01 10:56:00;;;;;;;2.60;1.70;;;;;;;24.28;43.32;98266.27;105982;1277;137151;-84
2022/06/01 10:58:29;;;;;;;2.80;1.60;;;;;;;24.28;44.58;98266.55;106276;1277;24184;-85
2022/06/01 11:01:08;;;;;;;3.10;1.60;;;;;;;24.43;44.62;98269.98;105963;1277;137810;-86
2022/06/01 11:03:44;;;;;;;5.30;2.00;;;;;;;24.52;42.81;98268.48;106159;1277;22590;-83
2022/06/01 11:06:36;;;;;;;1.40;1.20;;;;;;;24.58;41.35;98274.20;106132;1278;22974;-84
2022/06/01 11:09:26;;;;;;;3.40;1.30;;;;;;;24.70;40.41;98272.16;106372;1277;137594;-86
2022/06/01 11:11:58;;;;;;;2.40;1.60;;;;;;;24.82;39.72;98267.98;106097;1277;22718;-87
2022/06/01 11:14:30;;;;;;;2.60;1.50;;;;;;;25.00;39.10;98265.89;106143;1277;137228;-85
2022/06/01 11:17:33;;;;;;;1.60;1.40;;;;;;;25.14;38.93;98259.20;106196;1277;23059;-88
2022/06/01 11:20:21;;;;;;;2.60;1.70;;;;;;;25.18;37.89;98263.57;106247;1277;137151;-85
2022/06/01 11:22:56;;;;;;;;;;;;;;;25.18;37.93;98261.09;106540;1278;22547;-85
2022/06/01 11:25:29;;;;;;;3.00;1.60;;;;;;;25.29;37.03;98264.26;106517;1277;123996;-86
2022/06/01 11:28:14;;;;;;;3.10;1.30;;;;;;;25.41;36.75;98272.80;106746;1277;24337;-84
2022/06/01 11:30:57;;;;;;;2.60;1.40;;;;;;;25.58;36.77;98263.15;105821;1277;25268;-85
2022/06/01 11:33:57;;;;;;;3.90;1.80;;;;;;;25.71;37.22;98263.16;106104;1277;22724;-84
2022/06/01 11:36:50;;;;;;;3.80;1.70;;;;;;;25.56;37.68;98267.13;105999;1277;24361;-85
2022/06/01 11:39:55;;;;;;;1.80;1.60;;;;;;;25.22;37.65;98262.91;105941;1277;137790;-83
2022/06/01 11:42:36;;;;;;;1.50;1.40;;;;;;;24.89;37.90;98261.20;106334;1277;23227;-86
2022/06/01 11:45:22;;;;;;;3.70;1.70;;;;;;;24.91;37.95;98261.29;105842;1277;138096;-86
2022/06/01 11:47:55;;;;;;;2.60;1.80;;;;;;;24.95;37.83;98259.66;106052;1278;22570;-85
2022/06/01 11:50:55;;;;;;;2.30;1.50;;;;;;;25.06;38.85;98255.59;106196;1277;137755;-83
2022/06/01 11:53:43;;;;;;;1.70;1.30;;;;;;;25.27;38.01;98255.98;106130;1277;23172;-84
2022/06/01 11:56:22;;;;;;;1.30;1.20;;;;;;;25.59;37.00;98254.41;106194;1279;137730;-84
2022/06/01 11:59:14;;;;;;;3.80;1.40;;;;;;;26.04;36.73;98254.45;106158;1278;22581;-85
2022/06/01 12:01:47;;;;;;;2.40;1.20;;;;;;;26.50;36.77;98253.09;106191;1277;138188;-86
2022/06/01 12:04:50;;;;;;;1.80;1.30;;;;;;;26.91;35.24;98258.69;106088;1277;22569;-85
2022/06/01 12:07:25;;;;;;;1.20;1.10;;;;;;;27.22;33.81;98248.95;106059;1277;137453;-87
2022/06/01 12:10:06;;;;;;;3.20;1.20;;;;;;;27.51;32.98;98248.80;106261;1277;25391;-87
2022/06/01 12:12:33;;;;;;;2.70;1.20;;;;;;;27.79;32.60;98253.28;106292;1277;25521;-85
2022/06/01 12:15:18;;;;;;;1.70;1.10;;;;;;;27.98;30.96;98248.30;106235;1276;137983;-85
2022/06/01 12:18:13;;;;;;;4.30;1.40;;;;;;;27.92;29.93;98248.14;106550;1277;22745;-88